sensor_id;sensor_type;location;lat;lon;timestamp;pressure;altitude;pressure_sealevel;temperature;humidity
28000;BME280;15328;50.860;10.562;2023-01-26T00:04:35;97027.69;;;-1.62;71.79
28000;BME280;15328;50.860;10.562;2023-01-26T00:09:35;97024.00;;;-1.60;72.32
28000;BME280;15328;50.860;10.562;2023-01-26T00:14:35;97009.34;;;-1.51;71.83
28000;BME280;15328;50.860;10.562;2023-01-26T00:19:48;97005.50;;;-1.47;71.39
28000;BME280;15328;50.860;10.562;2023-01-26T00:24:49;96999.03;;;-1.52;71.44
28000;BME280;15328;50.860;10.562;2023-01-26T00:29:49;96991.50;;;-1.46;71.52
28000;BME280;15328;50.860;10.562;2023-01-26T00:34:49;96984.63;;;-1.47;71.09
28000;BME280;15328;50.860;10.562;2023-01-26T00:39:50;96982.03;;;-1.47;71.59
28000;BME280;15328;50.860;10.562;2023-01-26T00:44:50;96982.31;;;-1.40;71.26
28000;BME280;15328;50.860;10.562;2023-01-26T00:49:51;96981.00;;;-1.35;72.24
28000;BME280;15328;50.860;10.562;2023-01-26T00:54:51;96974.81;;;-1.34;72.07
28000;BME280;15328;50.860;10.562;2023-01-26T00:59:51;96985.25;;;-1.34;71.59
28000;BME280;15328;50.860;10.562;2023-01-26T01:04:52;96990.25;;;-1.51;72.54
28000;BME280;15328;50.860;10.562;2023-01-26T01:09:52;96977.97;;;-1.61;72.61
28000;BME280;15328;50.860;10.562;2023-01-26T01:14:52;96979.50;;;-1.58;72.89
28000;BME280;15328;50.860;10.562;2023-01-26T01:19:52;96972.63;;;-1.59;71.83
28000;BME280;15328;50.860;10.562;2023-01-26T01:24:53;96969.47;;;-1.63;72.03
28000;BME280;15328;50.860;10.562;2023-01-26T01:29:53;96964.28;;;-1.53;71.50
28000;BME280;15328;50.860;10.562;2023-01-26T01:34:53;96970.09;;;-1.40;71.35
28000;BME280;15328;50.860;10.562;2023-01-26T01:39:54;96968.06;;;-1.36;71.35
28000;BME280;15328;50.860;10.562;2023-01-26T01:50:26;96975.84;;;-1.46;71.75
28000;BME280;15328;50.860;10.562;2023-01-26T01:55:27;96962.25;;;-1.40;71.30
28000;BME280;15328;50.860;10.562;2023-01-26T02:00:28;96966.16;;;-1.34;71.34
28000;BME280;15328;50.860;10.562;2023-01-26T02:05:32;96947.75;;;-1.33;71.44
28000;BME280;15328;50.860;10.562;2023-01-26T02:10:35;96945.50;;;-1.37;70.83
28000;BME280;15328;50.860;10.562;2023-01-26T02:15:36;96944.00;;;-1.40;70.76
28000;BME280;15328;50.860;10.562;2023-01-26T02:20:58;96937.91;;;-1.50;72.21
28000;BME280;15328;50.860;10.562;2023-01-26T02:26:14;96927.34;;;-1.48;72.11
28000;BME280;15328;50.860;10.562;2023-01-26T02:31:16;96922.25;;;-1.50;71.67
28000;BME280;15328;50.860;10.562;2023-01-26T02:36:26;96908.53;;;-1.42;71.53
28000;BME280;15328;50.860;10.562;2023-01-26T02:41:27;96908.94;;;-1.47;71.17
28000;BME280;15328;50.860;10.562;2023-01-26T02:47:09;96890.59;;;-1.36;72.00
28000;BME280;15328;50.860;10.562;2023-01-26T02:52:10;96888.59;;;-1.53;71.08
28000;BME280;15328;50.860;10.562;2023-01-26T02:57:10;96878.31;;;-1.54;71.03
28000;BME280;15328;50.860;10.562;2023-01-26T03:02:11;96882.63;;;-1.65;71.27
28000;BME280;15328;50.860;10.562;2023-01-26T03:07:12;96879.72;;;-1.71;71.55
28000;BME280;15328;50.860;10.562;2023-01-26T03:12:12;96875.28;;;-1.50;72.18
28000;BME280;15328;50.860;10.562;2023-01-26T03:17:13;96883.66;;;-1.56;71.76
28000;BME280;15328;50.860;10.562;2023-01-26T03:22:13;96883.13;;;-1.50;71.04
28000;BME280;15328;50.860;10.562;2023-01-26T03:27:39;96875.22;;;-1.69;70.68
28000;BME280;15328;50.860;10.562;2023-01-26T03:32:40;96878.16;;;-1.53;71.14
28000;BME280;15328;50.860;10.562;2023-01-26T03:37:43;96867.31;;;-1.48;71.14
28000;BME280;15328;50.860;10.562;2023-01-26T03:42:44;96873.91;;;-1.54;70.90
28000;BME280;15328;50.860;10.562;2023-01-26T03:48:08;96869.91;;;-1.58;71.04
28000;BME280;15328;50.860;10.562;2023-01-26T03:53:27;96864.72;;;-1.48;70.50
28000;BME280;15328;50.860;10.562;2023-01-26T03:58:51;96866.22;;;-1.56;69.79
28000;BME280;15328;50.860;10.562;2023-01-26T04:03:54;96869.09;;;-1.59;70.91
28000;BME280;15328;50.860;10.562;2023-01-26T04:09:13;96868.41;;;-1.61;71.15
28000;BME280;15328;50.860;10.562;2023-01-26T04:14:15;96858.53;;;-1.57;70.60
28000;BME280;15328;50.860;10.562;2023-01-26T04:19:33;96863.47;;;-1.54;71.06
28000;BME280;15328;50.860;10.562;2023-01-26T04:24:52;96859.22;;;-1.45;71.21
28000;BME280;15328;50.860;10.562;2023-01-26T04:29:52;96856.75;;;-1.47;70.69
28000;BME280;15328;50.860;10.562;2023-01-26T04:34:53;96853.16;;;-1.56;70.53
28000;BME280;15328;50.860;10.562;2023-01-26T04:39:53;96848.38;;;-1.41;70.42
28000;BME280;15328;50.860;10.562;2023-01-26T04:44:53;96843.00;;;-1.59;70.17
28000;BME280;15328;50.860;10.562;2023-01-26T04:49:54;96843.91;;;-1.69;70.91
28000;BME280;15328;50.860;10.562;2023-01-26T04:54:54;96829.13;;;-1.59;71.11
28000;BME280;15328;50.860;10.562;2023-01-26T04:59:54;96833.53;;;-1.90;71.26
28000;BME280;15328;50.860;10.562;2023-01-26T05:04:55;96829.84;;;-1.88;71.14
28000;BME280;15328;50.860;10.562;2023-01-26T05:09:55;96836.59;;;-1.85;71.16
28000;BME280;15328;50.860;10.562;2023-01-26T05:14:55;96832.97;;;-1.94;70.92
28000;BME280;15328;50.860;10.562;2023-01-26T05:19:56;96837.22;;;-1.93;71.13
28000;BME280;15328;50.860;10.562;2023-01-26T05:24:56;96824.69;;;-1.99;71.83
28000;BME280;15328;50.860;10.562;2023-01-26T05:29:57;96837.22;;;-1.93;71.67
28000;BME280;15328;50.860;10.562;2023-01-26T05:34:59;96844.34;;;-1.95;71.46
28000;BME280;15328;50.860;10.562;2023-01-26T05:39:59;96832.25;;;-1.96;72.14
28000;BME280;15328;50.860;10.562;2023-01-26T05:45:00;96823.44;;;-2.04;72.00
28000;BME280;15328;50.860;10.562;2023-01-26T05:50:00;96842.19;;;-1.90;72.01
28000;BME280;15328;50.860;10.562;2023-01-26T05:55:01;96841.97;;;-1.77;70.54
28000;BME280;15328;50.860;10.562;2023-01-26T06:00:03;96843.22;;;-2.02;71.77
28000;BME280;15328;50.860;10.562;2023-01-26T06:05:05;96846.19;;;-2.16;72.36
28000;BME280;15328;50.860;10.562;2023-01-26T06:10:06;96847.59;;;-2.02;71.83
28000;BME280;15328;50.860;10.562;2023-01-26T06:15:07;96841.72;;;-2.25;71.30
28000;BME280;15328;50.860;10.562;2023-01-26T06:20:08;96860.75;;;-2.13;72.29
28000;BME280;15328;50.860;10.562;2023-01-26T06:25:08;96853.66;;;-2.23;71.99
28000;BME280;15328;50.860;10.562;2023-01-26T06:30:09;96863.25;;;-2.23;72.30
28000;BME280;15328;50.860;10.562;2023-01-26T06:35:09;96864.03;;;-2.32;73.27
28000;BME280;15328;50.860;10.562;2023-01-26T06:40:10;96870.38;;;-2.25;72.78
28000;BME280;15328;50.860;10.562;2023-01-26T06:45:11;96865.63;;;-2.20;73.44
28000;BME280;15328;50.860;10.562;2023-01-26T06:50:12;96859.78;;;-2.33;72.76
28000;BME280;15328;50.860;10.562;2023-01-26T06:55:17;96855.84;;;-2.28;73.79
28000;BME280;15328;50.860;10.562;2023-01-26T07:00:20;96864.31;;;-2.14;73.67
28000;BME280;15328;50.860;10.562;2023-01-26T07:05:20;96861.22;;;-2.20;72.10
28000;BME280;15328;50.860;10.562;2023-01-26T07:10:20;96869.31;;;-2.23;72.46
28000;BME280;15328;50.860;10.562;2023-01-26T07:15:21;96871.09;;;-2.23;72.89
28000;BME280;15328;50.860;10.562;2023-01-26T07:20:21;96869.19;;;-2.21;72.83
28000;BME280;15328;50.860;10.562;2023-01-26T07:25:22;96866.25;;;-2.28;73.38
28000;BME280;15328;50.860;10.562;2023-01-26T07:30:22;96875.59;;;-2.25;72.44
28000;BME280;15328;50.860;10.562;2023-01-26T07:35:22;96875.47;;;-2.24;72.19
28000;BME280;15328;50.860;10.562;2023-01-26T07:40:23;96876.44;;;-2.25;72.59
28000;BME280;15328;50.860;10.562;2023-01-26T07:45:24;96879.25;;;-2.37;73.08
28000;BME280;15328;50.860;10.562;2023-01-26T07:50:24;96877.19;;;-2.34;72.32
28000;BME280;15328;50.860;10.562;2023-01-26T07:55:27;96876.50;;;-2.15;73.48
28000;BME280;15328;50.860;10.562;2023-01-26T08:00:27;96879.34;;;-1.97;73.03
28000;BME280;15328;50.860;10.562;2023-01-26T08:05:28;96884.97;;;-1.92;72.94
28000;BME280;15328;50.860;10.562;2023-01-26T08:10:28;96874.47;;;-2.32;73.13
28000;BME280;15328;50.860;10.562;2023-01-26T08:15:30;96872.13;;;-2.35;73.96
28000;BME280;15328;50.860;10.562;2023-01-26T08:20:31;96883.44;;;-2.25;73.76
28000;BME280;15328;50.860;10.562;2023-01-26T08:25:31;96886.16;;;-2.27;73.30
28000;BME280;15328;50.860;10.562;2023-01-26T08:30:33;96878.34;;;-2.06;73.13
28000;BME280;15328;50.860;10.562;2023-01-26T08:35:33;96882.63;;;-1.95;72.93
28000;BME280;15328;50.860;10.562;2023-01-26T08:40:34;96878.25;;;-1.95;73.20
28000;BME280;15328;50.860;10.562;2023-01-26T08:45:34;96874.38;;;-2.00;72.79
28000;BME280;15328;50.860;10.562;2023-01-26T08:50:34;96884.81;;;-2.21;72.41
28000;BME280;15328;50.860;10.562;2023-01-26T08:55:35;96884.06;;;-1.91;71.76
28000;BME280;15328;50.860;10.562;2023-01-26T09:00:36;96887.91;;;-1.85;72.03
28000;BME280;15328;50.860;10.562;2023-01-26T09:05:38;96900.56;;;-1.81;72.46
28000;BME280;15328;50.860;10.562;2023-01-26T09:10:38;96897.28;;;-1.73;72.13
28000;BME280;15328;50.860;10.562;2023-01-26T09:15:39;96902.50;;;-1.73;71.51
28000;BME280;15328;50.860;10.562;2023-01-26T09:20:39;96904.78;;;-2.10;72.88
28000;BME280;15328;50.860;10.562;2023-01-26T09:25:40;96904.22;;;-2.14;72.72
28000;BME280;15328;50.860;10.562;2023-01-26T09:30:40;96906.31;;;-2.08;72.14
28000;BME280;15328;50.860;10.562;2023-01-26T09:35:40;96905.16;;;-1.94;72.12
28000;BME280;15328;50.860;10.562;2023-01-26T09:51:16;96914.25;;;-1.89;72.27
28000;BME280;15328;50.860;10.562;2023-01-26T09:56:21;96896.88;;;-1.99;72.02
28000;BME280;15328;50.860;10.562;2023-01-26T10:01:35;96906.88;;;-1.83;71.08
28000;BME280;15328;50.860;10.562;2023-01-26T10:06:37;96908.81;;;-1.76;72.03
28000;BME280;15328;50.860;10.562;2023-01-26T10:11:41;96899.66;;;-1.70;70.76
28000;BME280;15328;50.860;10.562;2023-01-26T10:16:45;96901.28;;;-2.00;71.19
28000;BME280;15328;50.860;10.562;2023-01-26T10:21:48;96884.25;;;-2.25;71.79
28000;BME280;15328;50.860;10.562;2023-01-26T10:26:52;96874.28;;;-2.40;72.52
28000;BME280;15328;50.860;10.562;2023-01-26T10:31:55;96874.84;;;-2.16;71.83
28000;BME280;15328;50.860;10.562;2023-01-26T10:37:04;96881.63;;;-2.04;72.14
28000;BME280;15328;50.860;10.562;2023-01-26T10:42:17;96876.50;;;-2.36;72.64
28000;BME280;15328;50.860;10.562;2023-01-26T10:47:18;96866.44;;;-2.20;72.69
28000;BME280;15328;50.860;10.562;2023-01-26T10:52:22;96849.66;;;-2.27;72.88
28000;BME280;15328;50.860;10.562;2023-01-26T11:02:27;96844.31;;;-2.25;72.77
28000;BME280;15328;50.860;10.562;2023-01-26T11:07:32;96840.38;;;-2.20;72.03
28000;BME280;15328;50.860;10.562;2023-01-26T11:12:33;96826.91;;;-1.94;72.48
28000;BME280;15328;50.860;10.562;2023-01-26T11:17:49;96832.09;;;-1.73;71.71
28000;BME280;15328;50.860;10.562;2023-01-26T11:33:43;96830.97;;;-2.11;71.07
28000;BME280;15328;50.860;10.562;2023-01-26T11:38:59;96826.88;;;-2.04;71.72
28000;BME280;15328;50.860;10.562;2023-01-26T12:05:18;96781.00;;;-1.85;72.85
28000;BME280;15328;50.860;10.562;2023-01-26T12:10:32;96776.75;;;-1.77;72.05
28000;BME280;15328;50.860;10.562;2023-01-26T12:15:37;96772.50;;;-1.68;71.92
28000;BME280;15328;50.860;10.562;2023-01-26T12:20:55;96761.78;;;-1.75;71.24
28000;BME280;15328;50.860;10.562;2023-01-26T12:26:05;96758.34;;;-1.75;71.48
28000;BME280;15328;50.860;10.562;2023-01-26T12:31:13;96747.56;;;-2.01;71.32
28000;BME280;15328;50.860;10.562;2023-01-26T12:36:50;96751.56;;;-1.97;71.94
28000;BME280;15328;50.860;10.562;2023-01-26T12:42:08;96749.19;;;-2.10;72.09
28000;BME280;15328;50.860;10.562;2023-01-26T12:57:34;96751.44;;;-1.96;70.57
28000;BME280;15328;50.860;10.562;2023-01-26T13:02:38;96755.94;;;-2.07;70.87
28000;BME280;15328;50.860;10.562;2023-01-26T13:07:39;96754.75;;;-2.24;70.14
28000;BME280;15328;50.860;10.562;2023-01-26T13:17:54;96758.84;;;-2.31;71.17
28000;BME280;15328;50.860;10.562;2023-01-26T13:22:58;96752.69;;;-2.51;70.75
28000;BME280;15328;50.860;10.562;2023-01-26T13:28:02;96756.13;;;-2.20;71.04
28000;BME280;15328;50.860;10.562;2023-01-26T13:33:41;96754.97;;;-2.37;69.99
28000;BME280;15328;50.860;10.562;2023-01-26T13:38:42;96766.19;;;-2.15;71.34
28000;BME280;15328;50.860;10.562;2023-01-26T13:43:47;96766.50;;;-1.99;69.76
28000;BME280;15328;50.860;10.562;2023-01-26T13:48:50;96762.31;;;-1.91;69.88
28000;BME280;15328;50.860;10.562;2023-01-26T13:59:17;96772.41;;;-1.97;69.67
28000;BME280;15328;50.860;10.562;2023-01-26T14:04:30;96769.69;;;-1.96;69.28
28000;BME280;15328;50.860;10.562;2023-01-26T14:09:38;96777.38;;;-1.94;69.00
28000;BME280;15328;50.860;10.562;2023-01-26T14:14:45;96771.78;;;-1.90;68.58
28000;BME280;15328;50.860;10.562;2023-01-26T14:19:47;96774.41;;;-1.80;69.63
28000;BME280;15328;50.860;10.562;2023-01-26T14:24:49;96780.19;;;-1.76;70.32
28000;BME280;15328;50.860;10.562;2023-01-26T14:29:50;96774.13;;;-1.87;69.76
28000;BME280;15328;50.860;10.562;2023-01-26T14:34:56;96773.59;;;-1.71;70.26
28000;BME280;15328;50.860;10.562;2023-01-26T14:40:18;96781.97;;;-1.67;70.73
28000;BME280;15328;50.860;10.562;2023-01-26T14:45:27;96783.75;;;-1.68;69.76
28000;BME280;15328;50.860;10.562;2023-01-26T14:50:29;96789.56;;;-1.64;70.34
28000;BME280;15328;50.860;10.562;2023-01-26T14:55:33;96796.31;;;-1.62;69.18
28000;BME280;15328;50.860;10.562;2023-01-26T15:00:36;96799.41;;;-1.68;69.70
28000;BME280;15328;50.860;10.562;2023-01-26T15:05:38;96801.88;;;-1.76;69.97
28000;BME280;15328;50.860;10.562;2023-01-26T15:11:00;96794.16;;;-1.87;69.96
28000;BME280;15328;50.860;10.562;2023-01-26T15:16:25;96800.97;;;-1.96;70.60
28000;BME280;15328;50.860;10.562;2023-01-26T15:21:36;96795.75;;;-1.96;71.23
28000;BME280;15328;50.860;10.562;2023-01-26T15:26:40;96791.00;;;-1.91;71.25
28000;BME280;15328;50.860;10.562;2023-01-26T15:31:50;96788.19;;;-1.99;71.56
28000;BME280;15328;50.860;10.562;2023-01-26T15:36:54;96788.00;;;-2.16;71.89
28000;BME280;15328;50.860;10.562;2023-01-26T15:42:04;96785.59;;;-2.29;72.42
28000;BME280;15328;50.860;10.562;2023-01-26T15:47:08;96787.91;;;-2.36;73.41
28000;BME280;15328;50.860;10.562;2023-01-26T15:52:19;96784.50;;;-2.27;72.67
28000;BME280;15328;50.860;10.562;2023-01-26T15:57:20;96789.59;;;-2.25;74.06
28000;BME280;15328;50.860;10.562;2023-01-26T16:02:23;96795.97;;;-2.18;72.95
28000;BME280;15328;50.860;10.562;2023-01-26T16:07:24;96805.19;;;-2.04;72.28
28000;BME280;15328;50.860;10.562;2023-01-26T16:12:24;96804.22;;;-2.34;73.04
28000;BME280;15328;50.860;10.562;2023-01-26T16:17:25;96804.53;;;-2.27;73.76
28000;BME280;15328;50.860;10.562;2023-01-26T16:22:28;96799.31;;;-2.27;73.74
28000;BME280;15328;50.860;10.562;2023-01-26T16:27:28;96793.81;;;-2.34;74.19
28000;BME280;15328;50.860;10.562;2023-01-26T16:32:35;96799.19;;;-2.26;73.65
28000;BME280;15328;50.860;10.562;2023-01-26T16:37:38;96787.31;;;-2.19;73.82
28000;BME280;15328;50.860;10.562;2023-01-26T16:42:56;96784.91;;;-2.01;73.51
28000;BME280;15328;50.860;10.562;2023-01-26T16:47:58;96787.78;;;-2.04;73.25
28000;BME280;15328;50.860;10.562;2023-01-26T16:58:16;96775.09;;;-1.88;73.76
28000;BME280;15328;50.860;10.562;2023-01-26T17:03:16;96775.16;;;-1.99;73.22
28000;BME280;15328;50.860;10.562;2023-01-26T17:08:16;96784.81;;;-1.90;74.01
28000;BME280;15328;50.860;10.562;2023-01-26T17:13:17;96788.84;;;-1.76;72.85
28000;BME280;15328;50.860;10.562;2023-01-26T17:18:17;96789.38;;;-1.72;72.79
28000;BME280;15328;50.860;10.562;2023-01-26T17:23:17;96788.16;;;-1.68;72.82
28000;BME280;15328;50.860;10.562;2023-01-26T17:28:18;96795.72;;;-1.65;72.75
28000;BME280;15328;50.860;10.562;2023-01-26T17:33:18;96787.19;;;-1.67;72.95
28000;BME280;15328;50.860;10.562;2023-01-26T17:38:18;96786.00;;;-1.53;72.77
28000;BME280;15328;50.860;10.562;2023-01-26T17:43:18;96784.63;;;-1.48;72.65
28000;BME280;15328;50.860;10.562;2023-01-26T17:48:19;96794.13;;;-1.47;72.50
28000;BME280;15328;50.860;10.562;2023-01-26T17:53:19;96790.97;;;-1.41;72.54
28000;BME280;15328;50.860;10.562;2023-01-26T17:58:19;96787.16;;;-1.37;73.01
28000;BME280;15328;50.860;10.562;2023-01-26T18:03:20;96801.44;;;-1.31;73.12
28000;BME280;15328;50.860;10.562;2023-01-26T18:08:27;96793.19;;;-1.27;72.84
28000;BME280;15328;50.860;10.562;2023-01-26T18:13:29;96790.03;;;-1.20;72.75
28000;BME280;15328;50.860;10.562;2023-01-26T18:18:29;96789.06;;;-1.19;72.96
28000;BME280;15328;50.860;10.562;2023-01-26T18:23:30;96791.81;;;-1.11;73.35
28000;BME280;15328;50.860;10.562;2023-01-26T18:28:30;96796.91;;;-1.10;72.83
28000;BME280;15328;50.860;10.562;2023-01-26T18:33:31;96792.66;;;-1.11;73.53
28000;BME280;15328;50.860;10.562;2023-01-26T18:38:31;96791.28;;;-1.05;72.70
28000;BME280;15328;50.860;10.562;2023-01-26T18:43:32;96791.72;;;-1.00;73.71
28000;BME280;15328;50.860;10.562;2023-01-26T18:48:32;96795.69;;;-0.96;73.72
28000;BME280;15328;50.860;10.562;2023-01-26T18:53:43;96790.88;;;-0.91;73.14
28000;BME280;15328;50.860;10.562;2023-01-26T18:58:59;96790.88;;;-0.81;73.37
28000;BME280;15328;50.860;10.562;2023-01-26T19:04:11;96786.34;;;-0.79;73.23
28000;BME280;15328;50.860;10.562;2023-01-26T19:09:17;96790.75;;;-0.80;73.09
28000;BME280;15328;50.860;10.562;2023-01-26T19:14:17;96796.78;;;-0.79;73.46
28000;BME280;15328;50.860;10.562;2023-01-26T19:19:18;96791.84;;;-0.73;73.28
28000;BME280;15328;50.860;10.562;2023-01-26T19:24:18;96798.56;;;-0.70;72.68
28000;BME280;15328;50.860;10.562;2023-01-26T19:29:18;96788.41;;;-0.73;73.17
28000;BME280;15328;50.860;10.562;2023-01-26T19:34:19;96799.38;;;-0.70;72.99
28000;BME280;15328;50.860;10.562;2023-01-26T19:39:19;96790.72;;;-0.70;72.82
28000;BME280;15328;50.860;10.562;2023-01-26T19:44:19;96796.78;;;-0.70;72.93
28000;BME280;15328;50.860;10.562;2023-01-26T19:49:20;96793.75;;;-0.75;73.58
28000;BME280;15328;50.860;10.562;2023-01-26T19:54:20;96790.59;;;-0.78;73.68
28000;BME280;15328;50.860;10.562;2023-01-26T19:59:21;96788.66;;;-0.67;73.60
28000;BME280;15328;50.860;10.562;2023-01-26T20:04:21;96783.00;;;-0.62;73.60
28000;BME280;15328;50.860;10.562;2023-01-26T20:09:21;96772.84;;;-0.65;73.55
28000;BME280;15328;50.860;10.562;2023-01-26T20:14:22;96781.78;;;-0.68;74.08
28000;BME280;15328;50.860;10.562;2023-01-26T20:19:22;96779.56;;;-0.63;73.98
28000;BME280;15328;50.860;10.562;2023-01-26T20:24:22;96788.78;;;-0.58;73.32
28000;BME280;15328;50.860;10.562;2023-01-26T20:29:23;96785.88;;;-0.55;73.74
28000;BME280;15328;50.860;10.562;2023-01-26T20:34:23;96783.25;;;-0.55;73.46
28000;BME280;15328;50.860;10.562;2023-01-26T20:39:24;96788.91;;;-0.50;73.93
28000;BME280;15328;50.860;10.562;2023-01-26T20:44:24;96791.25;;;-0.47;73.77
28000;BME280;15328;50.860;10.562;2023-01-26T20:49:24;96799.78;;;-0.45;73.45
28000;BME280;15328;50.860;10.562;2023-01-26T20:54:25;96803.06;;;-0.43;74.00
28000;BME280;15328;50.860;10.562;2023-01-26T20:59:25;96794.94;;;-0.40;73.63
28000;BME280;15328;50.860;10.562;2023-01-26T21:04:26;96806.06;;;-0.38;73.90
28000;BME280;15328;50.860;10.562;2023-01-26T21:09:27;96806.06;;;-0.38;73.16
28000;BME280;15328;50.860;10.562;2023-01-26T21:14:27;96810.09;;;-0.44;73.82
28000;BME280;15328;50.860;10.562;2023-01-26T21:19:28;96801.13;;;-0.41;73.77
28000;BME280;15328;50.860;10.562;2023-01-26T21:24:28;96800.16;;;-0.40;73.64
28000;BME280;15328;50.860;10.562;2023-01-26T21:29:29;96795.50;;;-0.46;74.34
28000;BME280;15328;50.860;10.562;2023-01-26T21:34:29;96790.69;;;-0.41;73.98
28000;BME280;15328;50.860;10.562;2023-01-26T21:39:29;96782.56;;;-0.38;73.81
28000;BME280;15328;50.860;10.562;2023-01-26T21:44:31;96786.53;;;-0.34;73.76
28000;BME280;15328;50.860;10.562;2023-01-26T21:49:32;96788.31;;;-0.35;73.58
28000;BME280;15328;50.860;10.562;2023-01-26T21:54:33;96778.41;;;-0.31;73.79
28000;BME280;15328;50.860;10.562;2023-01-26T21:59:33;96783.75;;;-0.33;74.16
28000;BME280;15328;50.860;10.562;2023-01-26T22:04:33;96779.06;;;-0.29;73.81
28000;BME280;15328;50.860;10.562;2023-01-26T22:09:35;96784.31;;;-0.29;73.86
28000;BME280;15328;50.860;10.562;2023-01-26T22:14:37;96785.69;;;-0.25;73.77
28000;BME280;15328;50.860;10.562;2023-01-26T22:19:38;96794.63;;;-0.18;74.37
28000;BME280;15328;50.860;10.562;2023-01-26T22:24:38;96797.22;;;-0.18;73.94
28000;BME280;15328;50.860;10.562;2023-01-26T22:29:39;96800.81;;;-0.19;73.73
28000;BME280;15328;50.860;10.562;2023-01-26T22:34:39;96799.16;;;-0.20;73.94
28000;BME280;15328;50.860;10.562;2023-01-26T22:39:39;96807.84;;;-0.19;74.20
28000;BME280;15328;50.860;10.562;2023-01-26T22:44:40;96810.59;;;-0.21;74.15
28000;BME280;15328;50.860;10.562;2023-01-26T22:49:40;96802.34;;;-0.26;74.23
28000;BME280;15328;50.860;10.562;2023-01-26T22:54:40;96801.34;;;-0.15;74.22
28000;BME280;15328;50.860;10.562;2023-01-26T22:59:40;96803.13;;;-0.16;73.92
28000;BME280;15328;50.860;10.562;2023-01-26T23:04:41;96812.91;;;-0.18;73.54
28000;BME280;15328;50.860;10.562;2023-01-26T23:09:41;96809.22;;;-0.25;73.83
28000;BME280;15328;50.860;10.562;2023-01-26T23:14:41;96803.31;;;-0.27;73.37
28000;BME280;15328;50.860;10.562;2023-01-26T23:19:42;96801.94;;;-0.31;73.18
28000;BME280;15328;50.860;10.562;2023-01-26T23:24:42;96804.28;;;-0.38;73.40
28000;BME280;15328;50.860;10.562;2023-01-26T23:30:03;96800.97;;;-0.30;73.71
28000;BME280;15328;50.860;10.562;2023-01-26T23:35:03;96793.53;;;-0.25;73.31
28000;BME280;15328;50.860;10.562;2023-01-26T23:40:04;96794.91;;;-0.31;73.38
28000;BME280;15328;50.860;10.562;2023-01-26T23:45:05;96794.09;;;-0.31;73.97
28000;BME280;15328;50.860;10.562;2023-01-26T23:50:06;96795.19;;;-0.34;73.47
28000;BME280;15328;50.860;10.562;2023-01-26T23:55:06;96790.78;;;-0.33;73.47
